Time;durP1;ratioP1;P1;durP2;ratioP2;P2;SDS_P1;SDS_P2;PMS_P1;PMS_P2;Temp;Humidity;BMP_temperature;BMP_pressure;BME280_temperature;BME280_humidity;BME280_pressure;Samples;Min_cycle;Max_cycle;Signal;HPM_P1;HPM_P2
2022/03/19 00:01:03;;;;;;;15.43;4.03;;;6.30;99.90;;;;;;5073419;28;20618;-52
2022/03/19 00:03:29;;;;;;;19.58;4.40;;;6.30;99.90;;;;;;5072978;28;20067;-54
2022/03/19 00:05:55;;;;;;;21.88;3.90;;;6.30;99.90;;;;;;5072751;28;20398;-54
2022/03/19 00:08:21;;;;;;;16.13;4.38;;;6.20;99.90;;;;;;5073315;28;20043;-55
2022/03/19 00:10:47;;;;;;;15.77;3.72;;;6.10;99.90;;;;;;5073170;28;20076;-55
2022/03/19 00:13:13;;;;;;;17.23;3.78;;;6.20;99.90;;;;;;5073320;28;20071;-55
2022/03/19 00:15:39;;;;;;;15.25;4.38;;;6.20;99.90;;;;;;5072838;28;20054;-54
2022/03/19 00:18:05;;;;;;;14.38;3.80;;;6.10;99.90;;;;;;5072284;28;20032;-55
2022/03/19 00:20:32;;;;;;;15.90;3.50;;;6.00;99.90;;;;;;5072951;28;20435;-55
2022/03/19 00:22:58;;;;;;;14.82;3.58;;;6.00;99.90;;;;;;5073462;28;20036;-55
2022/03/19 00:25:24;;;;;;;18.52;4.22;;;6.00;99.90;;;;;;5071557;28;20047;-53
2022/03/19 00:27:52;;;;;;;13.60;3.70;;;6.00;99.90;;;;;;5072808;28;20040;-53
2022/03/19 00:30:17;;;;;;;13.90;4.15;;;6.00;99.90;;;;;;5072869;28;20097;-54
2022/03/19 00:32:43;;;;;;;12.30;3.85;;;6.00;99.90;;;;;;5072788;28;20107;-54
2022/03/19 00:35:09;;;;;;;16.02;4.18;;;6.00;99.90;;;;;;5071639;28;20123;-54
2022/03/19 00:37:43;;;;;;;18.63;3.92;;;5.90;99.90;;;;;;5072576;28;20468;-54
2022/03/19 00:40:10;;;;;;;21.23;4.68;;;5.80;99.90;;;;;;5072913;28;20052;-55
2022/03/19 00:42:36;;;;;;;21.95;4.22;;;5.90;99.90;;;;;;5072690;28;20535;-54
2022/03/19 00:45:02;;;;;;;18.35;4.35;;;5.90;99.90;;;;;;5072514;28;20033;-55
2022/03/19 00:47:28;;;;;;;17.45;3.65;;;5.90;99.90;;;;;;5071855;28;20402;-55
2022/03/19 00:49:53;;;;;;;17.23;4.07;;;5.80;99.90;;;;;;5072330;28;20493;-55
2022/03/19 00:52:19;;;;;;;15.02;3.58;;;5.80;99.90;;;;;;5054280;28;20036;-54
2022/03/19 00:54:45;;;;;;;19.83;4.43;;;5.70;99.90;;;;;;5072546;28;20032;-54
2022/03/19 00:57:10;;;;;;;20.80;4.43;;;5.80;99.90;;;;;;5071513;28;20032;-54
2022/03/19 00:59:36;;;;;;;14.18;3.90;;;5.80;99.90;;;;;;5072385;28;20045;-54
2022/03/19 01:02:02;;;;;;;18.67;5.18;;;5.70;99.90;;;;;;5072224;28;20400;-54
2022/03/19 01:04:27;;;;;;;18.70;4.28;;;5.60;99.90;;;;;;5071940;28;20036;-54
2022/03/19 01:06:53;;;;;;;17.33;3.78;;;5.60;99.90;;;;;;5071689;28;20090;-55
2022/03/19 01:09:18;;;;;;;15.35;4.28;;;5.60;99.90;;;;;;5072012;28;20071;-54
2022/03/19 01:11:45;;;;;;;19.17;3.75;;;5.50;99.90;;;;;;5071039;28;20028;-55
2022/03/19 01:14:11;;;;;;;21.92;5.00;;;5.50;99.90;;;;;;5070588;28;20028;-54
2022/03/19 01:16:37;;;;;;;20.52;4.03;;;5.40;99.90;;;;;;5068086;28;20055;-55
2022/03/19 01:19:02;;;;;;;20.38;4.13;;;5.40;99.90;;;;;;5072034;28;20025;-55
2022/03/19 01:21:28;;;;;;;19.50;3.90;;;5.40;99.90;;;;;;5071713;28;20040;-54
2022/03/19 01:23:53;;;;;;;13.75;3.78;;;5.50;99.90;;;;;;5071458;28;20039;-55
2022/03/19 01:26:19;;;;;;;18.35;4.20;;;5.40;99.90;;;;;;5071782;28;20036;-55
2022/03/19 01:28:45;;;;;;;19.95;4.20;;;5.40;99.90;;;;;;5071541;28;20040;-53
2022/03/19 01:31:11;;;;;;;14.32;3.58;;;5.40;99.90;;;;;;5071908;28;20078;-55
2022/03/19 01:33:37;;;;;;;19.13;4.03;;;5.40;99.90;;;;;;5071526;28;20043;-55
2022/03/19 01:36:02;;;;;;;19.48;4.38;;;5.30;99.90;;;;;;5071334;28;20028;-53
2022/03/19 01:38:28;;;;;;;18.35;3.92;;;5.20;99.90;;;;;;5067574;28;20059;-55
2022/03/19 01:40:53;;;;;;;12.77;3.55;;;5.20;99.90;;;;;;5071540;28;20392;-54
2022/03/19 01:43:19;;;;;;;12.25;3.38;;;5.20;99.90;;;;;;5071096;28;20037;-55
2022/03/19 01:45:44;;;;;;;16.75;3.67;;;5.20;99.90;;;;;;5071116;28;20052;-54
2022/03/19 01:48:10;;;;;;;14.27;4.10;;;5.20;99.90;;;;;;5071456;28;20041;-54
2022/03/19 01:50:35;;;;;;;18.27;4.50;;;5.10;99.90;;;;;;5071549;28;20435;-55
2022/03/19 01:53:01;;;;;;;14.07;4.03;;;5.10;99.90;;;;;;5071240;28;20032;-55
2022/03/19 01:55:28;;;;;;;17.98;4.38;;;5.00;99.90;;;;;;5070951;28;20031;-55
2022/03/19 01:57:55;;;;;;;17.85;4.30;;;5.10;99.90;;;;;;5071170;28;20102;-54
2022/03/19 02:00:22;;;;;;;21.02;4.05;;;5.20;99.90;;;;;;5071114;28;20537;-54
2022/03/19 02:02:50;;;;;;;17.25;3.70;;;5.10;99.90;;;;;;5071302;28;20080;-54
2022/03/19 02:05:17;;;;;;;21.20;4.55;;;5.00;99.90;;;;;;5070990;28;20154;-54
2022/03/19 02:07:44;;;;;;;16.00;4.15;;;5.10;99.90;;;;;;5068303;28;20037;-53
2022/03/19 02:10:13;;;;;;;13.13;3.60;;;5.10;99.90;;;;;;5067476;28;20094;-55
2022/03/19 02:12:40;;;;;;;14.82;3.50;;;4.90;99.90;;;;;;5064423;28;20045;-54
2022/03/19 02:15:08;;;;;;;17.60;4.07;;;5.00;99.90;;;;;;5071111;28;20392;-54
2022/03/19 02:17:34;;;;;;;17.40;4.03;;;4.90;99.90;;;;;;5070906;28;20408;-54
2022/03/19 02:20:01;;;;;;;17.83;4.25;;;4.90;99.90;;;;;;5070978;28;20028;-54
2022/03/19 02:22:27;;;;;;;15.15;4.28;;;4.90;99.90;;;;;;5062834;28;20033;-54
2022/03/19 02:27:39;;;;;;;17.40;4.60;;;4.80;99.90;;;;;;5071022;28;20059;-54
2022/03/19 02:30:07;;;;;;;16.33;3.67;;;4.90;99.90;;;;;;5071372;28;20124;-54
2022/03/19 02:32:34;;;;;;;18.35;4.35;;;4.90;99.90;;;;;;5070500;28;20416;-55
2022/03/19 02:35:51;;;;;;;18.95;4.28;;;4.90;99.90;;;;;;5075001;28;20096;-52
2022/03/19 02:38:18;;;;;;;14.70;3.92;;;4.90;99.90;;;;;;5070539;28;20051;-56
2022/03/19 02:40:43;;;;;;;19.45;4.53;;;4.90;99.90;;;;;;5070904;28;20036;-56
2022/03/19 02:43:09;;;;;;;20.42;4.82;;;5.00;99.90;;;;;;5070523;28;20068;-56
2022/03/19 02:45:34;;;;;;;14.63;4.00;;;5.00;99.90;;;;;;5069926;28;20041;-57
2022/03/19 02:48:00;;;;;;;18.65;4.30;;;4.90;99.90;;;;;;5070512;28;20040;-56
2022/03/19 02:50:26;;;;;;;19.05;4.78;;;5.00;99.90;;;;;;5052093;28;20036;-56
2022/03/19 02:52:52;;;;;;;19.13;4.63;;;5.00;99.90;;;;;;5070887;28;20039;-56
2022/03/19 02:55:17;;;;;;;18.30;4.38;;;5.00;99.90;;;;;;5052663;28;20396;-55
2022/03/19 02:57:43;;;;;;;15.82;4.30;;;5.00;99.90;;;;;;5070141;28;20107;-56
2022/03/19 03:00:09;;;;;;;19.55;4.82;;;4.90;99.90;;;;;;5070100;28;20040;-54
2022/03/19 03:02:35;;;;;;;18.02;4.43;;;4.90;99.90;;;;;;5070366;28;20162;-55
2022/03/19 03:05:00;;;;;;;15.85;4.25;;;4.90;99.90;;;;;;5070098;28;20123;-56
2022/03/19 03:07:26;;;;;;;18.70;4.60;;;4.90;99.90;;;;;;5070413;28;20123;-56
2022/03/19 03:09:51;;;;;;;15.52;4.70;;;4.90;99.90;;;;;;5070407;28;20086;-55
2022/03/19 03:12:17;;;;;;;16.23;4.25;;;4.90;99.90;;;;;;5070305;28;20029;-50
2022/03/19 03:14:42;;;;;;;16.02;4.30;;;5.00;99.90;;;;;;5070095;28;20121;-53
2022/03/19 03:17:08;;;;;;;15.02;3.80;;;4.90;99.90;;;;;;5069079;28;20037;-50
2022/03/19 03:19:35;;;;;;;16.88;4.70;;;4.90;99.90;;;;;;5070110;28;20063;-50
2022/03/19 03:22:01;;;;;;;21.65;5.13;;;6.20;99.90;;;;;;5071518;28;20040;-54
2022/03/19 03:24:26;;;;;;;16.95;4.60;;;5.10;99.90;;;;;;5074034;28;20553;-56
2022/03/19 03:26:52;;;;;;;11.90;4.32;;;5.00;99.90;;;;;;5073228;28;20036;-54
2022/03/19 03:29:18;;;;;;;13.90;4.07;;;5.00;99.90;;;;;;5073749;28;20496;-56
2022/03/19 03:31:43;;;;;;;21.35;5.10;;;5.00;99.90;;;;;;5073455;28;20090;-55
2022/03/19 03:34:09;;;;;;;17.90;4.53;;;5.00;99.90;;;;;;5073236;28;20032;-56
2022/03/19 03:36:34;;;;;;;14.73;4.70;;;5.00;99.90;;;;;;5073829;28;20109;-54
2022/03/19 03:39:00;;;;;;;19.30;4.90;;;5.00;99.90;;;;;;5073541;28;20032;-54
2022/03/19 03:41:25;;;;;;;19.35;4.68;;;5.00;99.90;;;;;;5073253;28;20072;-55
2022/03/19 03:43:51;;;;;;;17.55;5.25;;;4.90;99.90;;;;;;5073209;28;20047;-56
2022/03/19 03:46:17;;;;;;;19.05;4.65;;;4.90;99.90;;;;;;5073234;28;20043;-52
2022/03/19 03:48:42;;;;;;;18.33;4.50;;;4.90;99.90;;;;;;5073120;28;20040;-51
2022/03/19 03:51:11;;;;;;;16.92;4.70;;;4.90;99.90;;;;;;5073442;28;20837;-50
2022/03/19 03:53:38;;;;;;;18.40;4.93;;;4.90;99.90;;;;;;5072919;28;20420;-54
2022/03/19 03:56:04;;;;;;;21.35;4.90;;;4.90;99.90;;;;;;5072757;28;20045;-55
2022/03/19 03:58:30;;;;;;;18.77;5.65;;;4.90;99.90;;;;;;5073284;28;20511;-55
2022/03/19 04:00:56;;;;;;;15.88;4.38;;;4.90;99.90;;;;;;5073049;28;20036;-53
2022/03/19 04:03:22;;;;;;;15.65;4.82;;;4.80;99.90;;;;;;5073154;28;20033;-50
2022/03/19 04:05:48;;;;;;;15.68;4.82;;;4.80;99.90;;;;;;5072937;28;20475;-52
2022/03/19 04:08:13;;;;;;;16.17;5.88;;;4.80;99.90;;;;;;5073020;28;20071;-52
2022/03/19 04:10:39;;;;;;;15.20;4.72;;;4.70;99.90;;;;;;5072885;28;20076;-56
2022/03/19 04:13:05;;;;;;;22.45;5.47;;;4.90;99.90;;;;;;5073081;28;20499;-55
2022/03/19 04:15:30;;;;;;;16.20;5.55;;;4.80;99.90;;;;;;5072895;28;20051;-55
2022/03/19 04:17:56;;;;;;;13.85;4.85;;;4.90;99.90;;;;;;5072862;28;20068;-55
2022/03/19 04:20:22;;;;;;;17.65;5.18;;;4.90;99.90;;;;;;5072482;28;20028;-55
2022/03/19 04:22:49;;;;;;;18.13;5.35;;;4.80;99.90;;;;;;5072602;28;20037;-55
2022/03/19 04:25:20;;;;;;;16.38;4.85;;;4.90;99.90;;;;;;5072412;28;20462;-55
2022/03/19 04:27:48;;;;;;;19.02;5.70;;;4.80;99.90;;;;;;5072587;28;20040;-56
2022/03/19 04:30:16;;;;;;;16.17;5.25;;;4.90;99.90;;;;;;5072414;28;20401;-53
2022/03/19 04:32:46;;;;;;;14.25;4.93;;;4.90;99.90;;;;;;5071882;28;20029;-56
2022/03/19 04:38:03;;;;;;;17.23;4.97;;;4.70;99.90;;;;;;5072438;28;20279;-54
2022/03/19 04:40:30;;;;;;;16.65;5.57;;;4.70;99.90;;;;;;5054396;28;20045;-54
2022/03/19 04:42:58;;;;;;;18.33;4.75;;;4.70;99.90;;;;;;5070312;28;20033;-54
2022/03/19 04:45:24;;;;;;;16.73;5.57;;;4.60;99.90;;;;;;5071812;28;20043;-55
2022/03/19 04:47:50;;;;;;;20.70;5.28;;;4.60;99.90;;;;;;5070394;28;20128;-56
2022/03/19 04:50:16;;;;;;;18.45;5.03;;;4.70;99.90;;;;;;5072271;28;20072;-54
2022/03/19 04:52:42;;;;;;;20.90;5.63;;;4.70;99.90;;;;;;5072017;28;20071;-54
2022/03/19 04:55:10;;;;;;;18.15;4.93;;;4.60;99.90;;;;;;5053590;28;20036;-54
2022/03/19 04:57:36;;;;;;;15.77;4.38;;;4.60;99.90;;;;;;5071565;28;20481;-54
2022/03/19 05:00:04;;;;;;;21.70;5.47;;;4.70;99.90;;;;;;5054201;28;20043;-55
2022/03/19 05:02:30;;;;;;;16.10;5.30;;;4.60;99.90;;;;;;5070616;28;20540;-56
2022/03/19 05:04:56;;;;;;;17.08;5.70;;;4.60;99.90;;;;;;5072063;28;20123;-53
2022/03/19 05:07:22;;;;;;;15.82;4.63;;;4.60;99.90;;;;;;5070469;28;20135;-54
2022/03/19 05:12:36;;;;;;;16.80;4.88;;;4.60;99.90;;;;;;5071682;28;20047;-54
2022/03/19 05:15:06;;;;;;;15.18;4.53;;;4.60;99.90;;;;;;5071879;28;20032;-54
2022/03/19 05:17:32;;;;;;;13.73;5.35;;;4.70;99.90;;;;;;5068704;28;20377;-50
2022/03/19 05:19:57;;;;;;;21.13;5.30;;;4.60;99.90;;;;;;5069530;28;20074;-54
2022/03/19 05:22:23;;;;;;;20.40;5.40;;;4.60;99.90;;;;;;5065973;28;20449;-55
2022/03/19 05:24:49;;;;;;;19.45;5.10;;;4.50;99.90;;;;;;5071148;28;20123;-54
2022/03/19 05:27:14;;;;;;;19.55;5.53;;;4.50;99.90;;;;;;5071183;28;20404;-51
2022/03/19 05:29:40;;;;;;;22.50;5.22;;;4.50;99.90;;;;;;5071564;28;20388;-54
2022/03/19 05:32:06;;;;;;;20.25;5.10;;;4.60;99.90;;;;;;5071062;28;20554;-54
2022/03/19 05:34:34;;;;;;;18.08;5.63;;;4.50;99.90;;;;;;5063175;28;20039;-54
2022/03/19 05:37:00;;;;;;;16.42;4.82;;;4.50;99.90;;;;;;5070809;28;20107;-53
2022/03/19 05:39:30;;;;;;;19.42;4.97;;;4.50;99.90;;;;;;5071522;28;20044;-55
2022/03/19 05:41:56;;;;;;;11.10;4.65;;;4.60;99.90;;;;;;5069092;28;20115;-54
2022/03/19 05:44:22;;;;;;;17.90;5.35;;;4.60;99.90;;;;;;5069984;28;20123;-54
2022/03/19 05:46:48;;;;;;;18.40;4.93;;;4.50;99.90;;;;;;5020184;28;20060;-54
2022/03/19 05:49:13;;;;;;;17.70;4.75;;;4.50;99.90;;;;;;5070726;28;20032;-55
2022/03/19 05:51:40;;;;;;;15.48;4.78;;;4.40;99.90;;;;;;5070599;28;20039;-54
2022/03/19 05:54:06;;;;;;;14.93;4.93;;;4.50;99.90;;;;;;5069782;28;20074;-54
2022/03/19 05:56:32;;;;;;;14.82;4.45;;;4.40;99.90;;;;;;5070937;28;20043;-55
2022/03/19 05:58:58;;;;;;;12.57;4.72;;;4.50;99.90;;;;;;5071412;28;20033;-55
2022/03/19 06:01:28;;;;;;;13.95;4.40;;;4.40;99.90;;;;;;5070344;28;20041;-55
2022/03/19 06:03:57;;;;;;;13.73;4.45;;;4.40;99.90;;;;;;5071535;28;20392;-55
2022/03/19 06:06:23;;;;;;;15.20;5.28;;;4.50;99.90;;;;;;5067262;28;20036;-54
2022/03/19 06:08:49;;;;;;;17.17;5.88;;;4.50;99.90;;;;;;5070591;28;20041;-54
2022/03/19 06:11:14;;;;;;;13.07;4.43;;;4.40;99.90;;;;;;5070904;28;20138;-54
2022/03/19 06:13:40;;;;;;;15.98;4.30;;;4.50;99.90;;;;;;5070714;28;20046;-53
2022/03/19 06:16:06;;;;;;;14.30;4.22;;;4.40;99.90;;;;;;5051230;28;20033;-54
2022/03/19 06:18:31;;;;;;;15.15;4.15;;;4.40;99.90;;;;;;5069407;28;20119;-54
2022/03/19 06:20:57;;;;;;;14.77;4.38;;;4.40;99.90;;;;;;5070633;28;20670;-54
2022/03/19 06:23:24;;;;;;;14.35;5.00;;;4.60;99.90;;;;;;5066243;28;20036;-54
2022/03/19 06:25:50;;;;;;;18.08;4.10;;;4.60;99.90;;;;;;5065292;28;20480;-54
2022/03/19 06:28:16;;;;;;;14.40;4.25;;;4.50;99.90;;;;;;5051488;28;20075;-54
2022/03/19 06:30:41;;;;;;;20.55;4.47;;;4.50;99.90;;;;;;5070572;28;20496;-55
2022/03/19 06:33:07;;;;;;;15.98;4.03;;;4.50;99.90;;;;;;5067274;28;20047;-54
2022/03/19 06:38:18;;;;;;;14.75;4.10;;;4.60;99.90;;;;;;5065963;28;20619;-55
2022/03/19 06:40:44;;;;;;;16.88;3.70;;;4.70;99.90;;;;;;5068400;28;20116;-55
2022/03/19 06:43:09;;;;;;;13.23;3.70;;;4.80;99.90;;;;;;5066937;28;20412;-55
2022/03/19 06:45:35;;;;;;;16.40;4.75;;;4.90;99.90;;;;;;5060980;28;20032;-55
2022/03/19 06:48:01;;;;;;;11.00;4.30;;;4.90;99.90;;;;;;5065280;28;20047;-54
2022/03/19 06:50:27;;;;;;;14.13;4.00;;;4.90;99.90;;;;;;5049870;28;20052;-54
2022/03/19 06:52:52;;;;;;;14.63;3.95;;;5.00;99.90;;;;;;5060637;28;20472;-54
2022/03/19 06:55:18;;;;;;;14.85;3.70;;;5.20;99.90;;;;;;5066922;28;20055;-54
2022/03/19 06:57:43;;;;;;;14.02;3.53;;;5.20;99.90;;;;;;5070353;28;20082;-56
2022/03/19 07:00:09;;;;;;;14.05;3.83;;;5.30;99.90;;;;;;5070146;28;20040;-56
2022/03/19 07:02:50;;;;;;;11.20;3.50;;;5.40;99.90;;;;;;5065571;28;20043;-55
2022/03/19 07:05:26;;;;;;;16.13;4.20;;;5.40;99.90;;;;;;5069005;28;20507;-56
2022/03/19 07:07:54;;;;;;;18.88;3.80;;;5.50;99.90;;;;;;5065840;28;20400;-55
2022/03/19 07:10:20;;;;;;;15.20;4.20;;;5.50;99.90;;;;;;5063798;28;20075;-55
2022/03/19 07:12:47;;;;;;;18.27;4.72;;;5.60;99.90;;;;;;5065664;28;20032;-55
2022/03/19 07:15:14;;;;;;;15.18;4.40;;;5.70;99.90;;;;;;5066566;28;20042;-53
2022/03/19 07:17:40;;;;;;;22.23;4.32;;;5.80;99.90;;;;;;5071933;28;20033;-55
2022/03/19 07:20:06;;;;;;;16.35;4.55;;;5.90;99.90;;;;;;5068892;28;20492;-54
2022/03/19 07:22:52;;;;;;;14.25;4.43;;;6.00;99.90;;;;;;5068086;28;20036;-55
2022/03/19 07:25:20;;;;;;;14.30;4.03;;;6.00;99.90;;;;;;5065814;28;20439;-54
2022/03/19 07:27:48;;;;;;;15.63;4.45;;;6.00;99.90;;;;;;5063885;28;20044;-55
2022/03/19 07:30:14;;;;;;;15.70;4.78;;;6.10;99.90;;;;;;5061848;28;20185;-54
2022/03/19 07:32:40;;;;;;;16.95;5.00;;;6.20;99.90;;;;;;5072531;28;20539;-55
2022/03/19 07:35:06;;;;;;;21.88;5.70;;;6.30;99.90;;;;;;5071409;28;20032;-55
2022/03/19 07:37:32;;;;;;;13.80;4.50;;;6.30;99.90;;;;;;5063015;28;20512;-54
2022/03/19 07:39:59;;;;;;;16.65;4.55;;;6.50;99.90;;;;;;5065341;28;20055;-55
2022/03/19 07:42:25;;;;;;;13.13;4.22;;;6.60;99.90;;;;;;5064273;28;20150;-55
2022/03/19 07:44:51;;;;;;;16.52;4.30;;;6.80;99.90;;;;;;5067223;28;20028;-54
2022/03/19 07:47:18;;;;;;;17.92;4.45;;;6.90;99.90;;;;;;5067379;28;20039;-52
2022/03/19 07:49:44;;;;;;;13.50;3.88;;;7.10;99.90;;;;;;5068107;28;20048;-54
2022/03/19 07:52:11;;;;;;;15.23;4.40;;;7.20;99.90;;;;;;5071040;28;20039;-54
2022/03/19 07:54:37;;;;;;;12.75;4.03;;;7.20;99.90;;;;;;5064769;28;20094;-56
2022/03/19 07:57:07;;;;;;;12.80;3.47;;;7.40;99.90;;;;;;5060037;28;20037;-55
2022/03/19 07:59:33;;;;;;;13.95;4.05;;;7.60;99.90;;;;;;5070490;28;20036;-54
2022/03/19 08:01:59;;;;;;;17.02;4.30;;;7.60;99.90;;;;;;5070116;28;20040;-56
2022/03/19 08:04:25;;;;;;;16.58;4.35;;;7.70;99.90;;;;;;5072291;28;20040;-56
2022/03/19 08:06:55;;;;;;;14.73;3.83;;;7.70;99.90;;;;;;5070962;28;20089;-56
2022/03/19 08:09:22;;;;;;;17.05;4.53;;;7.90;99.90;;;;;;5063571;28;20106;-54
2022/03/19 08:11:49;;;;;;;11.60;2.95;;;8.00;99.90;;;;;;5066451;28;20033;-55
2022/03/19 08:14:15;;;;;;;16.35;4.72;;;8.10;99.40;;;;;;5061429;28;20028;-54
2022/03/19 08:16:41;;;;;;;14.38;4.32;;;8.20;99.90;;;;;;5075287;28;20485;-54
2022/03/19 08:19:08;;;;;;;15.30;3.83;;;8.10;99.90;;;;;;5073331;28;20036;-54
2022/03/19 08:21:34;;;;;;;14.55;4.55;;;8.30;99.90;;;;;;5073021;28;20404;-55
2022/03/19 08:23:59;;;;;;;11.10;4.15;;;8.30;99.90;;;;;;5055347;28;20045;-55
2022/03/19 08:26:25;;;;;;;12.05;3.53;;;8.30;99.10;;;;;;5073354;28;20077;-54
2022/03/19 08:28:51;;;;;;;17.42;4.22;;;8.40;98.90;;;;;;5071425;28;20120;-54
2022/03/19 08:31:17;;;;;;;13.45;3.63;;;8.00;98.70;;;;;;5071777;28;20392;-55
2022/03/19 08:33:43;;;;;;;16.80;3.95;;;8.50;98.30;;;;;;5072549;28;20032;-55
2022/03/19 08:36:41;;;;;;;11.35;3.47;;;8.60;97.90;;;;;;5087295;28;20041;-54
2022/03/19 08:41:51;;;;;;;17.42;4.07;;;8.60;97.40;;;;;;5070577;28;20724;-56
2022/03/19 08:44:17;;;;;;;14.05;3.67;;;8.60;97.60;;;;;;5070231;28;20036;-55
2022/03/19 08:46:42;;;;;;;10.32;2.97;;;8.60;96.90;;;;;;5071151;28;20488;-56
2022/03/19 08:49:08;;;;;;;15.55;3.30;;;8.80;96.00;;;;;;5071889;28;20131;-56
2022/03/19 08:51:39;;;;;;;8.77;2.63;;;8.90;96.40;;;;;;5072801;28;20186;-56
2022/03/19 08:54:06;;;;;;;15.55;3.72;;;8.90;95.70;;;;;;5071840;28;20054;-56
2022/03/19 08:56:33;;;;;;;17.77;4.85;;;8.80;96.90;;;;;;5054375;28;20044;-54
2022/03/19 08:59:00;;;;;;;14.68;3.80;;;8.80;97.20;;;;;;5068969;28;20098;-54
2022/03/19 09:01:26;;;;;;;12.63;3.72;;;8.90;97.50;;;;;;5072193;28;20132;-54
2022/03/19 09:03:52;;;;;;;15.70;3.95;;;9.00;96.90;;;;;;5053744;28;20492;-54
2022/03/19 09:06:18;;;;;;;15.68;3.47;;;9.10;95.60;;;;;;5071601;28;20089;-55
2022/03/19 09:08:46;;;;;;;17.20;3.95;;;9.20;96.30;;;;;;5070611;28;20045;-54
2022/03/19 09:11:12;;;;;;;12.75;3.03;;;9.30;95.60;;;;;;5070421;28;20040;-55
2022/03/19 09:13:38;;;;;;;13.30;2.88;;;9.40;94.10;;;;;;5067587;28;20093;-54
2022/03/19 09:16:05;;;;;;;14.48;4.20;;;9.40;93.00;;;;;;5070269;28;20044;-56
2022/03/19 09:18:31;;;;;;;14.50;4.10;;;9.40;93.90;;;;;;5070013;28;20463;-55
2022/03/19 09:20:57;;;;;;;9.55;3.13;;;9.40;93.50;;;;;;5072191;28;20075;-56
2022/03/19 09:23:23;;;;;;;15.98;3.53;;;9.50;93.00;;;;;;5069361;28;20040;-56
2022/03/19 09:25:49;;;;;;;12.07;3.45;;;9.50;93.20;;;;;;5071903;28;20051;-55
2022/03/19 09:28:15;;;;;;;12.23;3.17;;;9.60;92.80;;;;;;5070432;28;20036;-55
2022/03/19 09:30:41;;;;;;;10.75;2.60;;;9.60;90.50;;;;;;5071485;28;20040;-55
2022/03/19 09:33:06;;;;;;;10.85;2.35;;;9.80;85.00;;;;;;5068822;28;20115;-55
2022/03/19 09:35:33;;;;;;;12.18;2.78;;;9.80;83.80;;;;;;5071906;28;20049;-56
2022/03/19 09:37:58;;;;;;;11.45;2.72;;;9.90;84.30;;;;;;5070806;28;20051;-57
2022/03/19 09:40:24;;;;;;;7.95;2.85;;;9.90;82.30;;;;;;5068244;28;20036;-55
2022/03/19 09:42:52;;;;;;;8.23;2.72;;;10.00;82.00;;;;;;5066612;28;20041;-55
2022/03/19 09:45:19;;;;;;;15.63;4.00;;;10.00;83.60;;;;;;5066233;28;20519;-55
2022/03/19 09:47:45;;;;;;;12.05;3.25;;;10.10;85.50;;;;;;5067331;28;20045;-55
2022/03/19 09:50:10;;;;;;;10.40;3.15;;;10.20;84.00;;;;;;5069396;28;20447;-54
2022/03/19 09:52:37;;;;;;;12.27;2.33;;;10.20;85.60;;;;;;5067395;28;20412;-56
2022/03/19 09:55:03;;;;;;;9.27;2.80;;;10.20;83.90;;;;;;5069677;28;20059;-55
2022/03/19 09:57:29;;;;;;;11.02;2.60;;;10.40;77.50;;;;;;5069467;28;20039;-55
2022/03/19 09:59:54;;;;;;;9.65;2.70;;;10.40;77.50;;;;;;5069225;28;20032;-57
2022/03/19 10:02:20;;;;;;;11.35;3.30;;;10.40;74.50;;;;;;5068730;28;20040;-54
2022/03/19 10:04:45;;;;;;;15.32;2.92;;;10.50;75.20;;;;;;5069260;28;20047;-55
2022/03/19 10:09:56;;;;;;;8.35;2.28;;;10.50;75.50;;;;;;5066703;28;20047;-50
2022/03/19 10:12:29;;;;;;;13.05;2.50;;;10.70;72.60;;;;;;5069350;28;20097;-51
2022/03/19 10:14:55;;;;;;;;;;;10.80;73.00;;;;;;5068379;28;20075;-52
2022/03/19 10:17:33;;;;;;;10.98;2.42;;;10.80;73.20;;;;;;5064872;28;20376;-57
2022/03/19 10:20:10;;;;;;;13.13;3.00;;;10.90;71.90;;;;;;5067859;28;20086;-55
2022/03/19 10:22:41;;;;;;;9.30;3.08;;;11.00;72.10;;;;;;5064698;28;20087;-55
2022/03/19 10:25:08;;;;;;;10.98;3.13;;;11.00;69.60;;;;;;5064658;28;20040;-57
2022/03/19 10:27:35;;;;;;;13.40;3.20;;;11.10;70.80;;;;;;5066038;28;20080;-56
2022/03/19 10:30:23;;;;;;;11.25;3.25;;;11.20;68.70;;;;;;5066631;28;20039;-57
2022/03/19 10:32:51;;;;;;;11.82;2.90;;;11.20;69.20;;;;;;5068386;28;20539;-57
2022/03/19 10:35:27;;;;;;;12.50;3.08;;;11.20;69.40;;;;;;5069967;28;20064;-56
2022/03/19 10:37:53;;;;;;;9.50;2.10;;;11.10;69.60;;;;;;5063171;28;20040;-56
2022/03/19 10:40:20;;;;;;;9.25;2.10;;;11.30;64.50;;;;;;5065150;28;20044;-53
2022/03/19 10:42:46;;;;;;;10.50;2.20;;;11.30;62.30;;;;;;5068159;28;20525;-51
2022/03/19 10:45:20;;;;;;;7.18;2.25;;;11.30;64.90;;;;;;5072483;28;20036;-53
2022/03/19 10:47:47;;;;;;;6.35;1.80;;;11.30;61.60;;;;;;5071622;28;20056;-54
2022/03/19 10:50:24;;;;;;;6.93;2.08;;;11.40;59.00;;;;;;5070845;28;20063;-57
2022/03/19 10:52:52;;;;;;;6.57;1.80;;;11.40;59.30;;;;;;5068980;28;20040;-56
2022/03/19 10:55:19;;;;;;;9.38;2.15;;;11.30;58.50;;;;;;5065726;28;20094;-55
2022/03/19 10:57:46;;;;;;;11.50;2.53;;;11.30;58.40;;;;;;5073171;28;20035;-56
2022/03/19 11:00:12;;;;;;;11.27;2.72;;;11.40;61.20;;;;;;5073471;28;20400;-52
2022/03/19 11:02:44;;;;;;;12.25;2.83;;;11.50;62.00;;;;;;5067157;28;20051;-53
2022/03/19 11:05:11;;;;;;;8.30;2.20;;;11.50;62.20;;;;;;5073109;28;20036;-55
2022/03/19 11:07:42;;;;;;;6.40;1.90;;;11.60;61.60;;;;;;5053984;28;20039;-57
2022/03/19 11:10:09;;;;;;;8.85;2.22;;;11.70;60.00;;;;;;5068528;28;20085;-55
2022/03/19 11:13:10;;;;;;;8.40;2.05;;;11.70;59.10;;;;;;5066135;28;20060;-55
2022/03/19 11:15:54;;;;;;;10.85;2.40;;;11.80;57.50;;;;;;5071815;28;20037;-54
2022/03/19 11:18:21;;;;;;;7.38;2.30;;;11.90;58.70;;;;;;5072233;28;20032;-54
2022/03/19 11:20:48;;;;;;;9.82;2.40;;;12.00;58.50;;;;;;5069313;28;20451;-55
2022/03/19 11:23:16;;;;;;;11.52;2.90;;;12.00;59.10;;;;;;5046551;28;20040;-54
2022/03/19 11:25:56;;;;;;;9.20;2.72;;;12.00;59.20;;;;;;5072297;28;20485;-53
2022/03/19 11:28:22;;;;;;;8.05;1.75;;;12.00;59.90;;;;;;5070593;28;20115;-55
2022/03/19 11:31:09;;;;;;;9.43;2.38;;;12.20;57.10;;;;;;5072114;28;20040;-51
2022/03/19 11:33:36;;;;;;;7.18;2.20;;;12.30;57.50;;;;;;5069156;28;20037;-53
2022/03/19 11:36:10;;;;;;;9.40;2.28;;;12.30;54.70;;;;;;5070652;28;20056;-51
2022/03/19 11:38:42;;;;;;;7.03;1.80;;;12.30;55.10;;;;;;5071085;28;20041;-51
2022/03/19 11:41:19;;;;;;;5.57;1.87;;;12.40;53.90;;;;;;5067941;28;20041;-51
2022/03/19 11:43:45;;;;;;;7.13;1.58;;;12.50;51.30;;;;;;5068661;28;20041;-53
2022/03/19 11:46:12;;;;;;;6.22;1.92;;;12.60;49.90;;;;;;5063590;28;20039;-50
2022/03/19 11:48:37;;;;;;;3.97;1.40;;;12.50;51.50;;;;;;5067523;28;20520;-51
2022/03/19 11:51:15;;;;;;;4.65;1.65;;;12.60;50.20;;;;;;5070478;28;20481;-55
2022/03/19 11:54:19;;;;;;;10.10;2.17;;;12.60;50.50;;;;;;5067707;28;20047;-51
2022/03/19 11:56:45;;;;;;;10.10;2.33;;;12.60;52.40;;;;;;5069001;28;20405;-51
2022/03/19 11:59:12;;;;;;;5.60;1.88;;;12.70;52.50;;;;;;5067309;28;20036;-51
2022/03/19 12:01:55;;;;;;;4.95;1.90;;;12.80;51.10;;;;;;5070681;28;20043;-51
2022/03/19 12:04:22;;;;;;;8.90;1.90;;;12.80;51.50;;;;;;5069593;28;20032;-50
2022/03/19 12:06:55;;;;;;;7.35;2.20;;;12.80;51.40;;;;;;5068298;28;20133;-54
2022/03/19 12:09:39;;;;;;;8.90;2.17;;;12.80;52.80;;;;;;5067980;28;20511;-51
2022/03/19 12:12:07;;;;;;;4.72;1.80;;;12.70;52.60;;;;;;5062075;28;20461;-51
2022/03/19 12:14:33;;;;;;;8.15;2.05;;;12.90;51.50;;;;;;5070682;28;20036;-53
2022/03/19 12:17:32;;;;;;;6.03;1.88;;;12.80;52.00;;;;;;5066542;28;20043;-51
2022/03/19 12:20:05;;;;;;;3.20;1.27;;;12.80;51.70;;;;;;5067597;28;20112;-51
2022/03/19 12:22:36;;;;;;;4.93;2.03;;;12.80;50.60;;;;;;5065150;28;20063;-52
2022/03/19 12:25:18;;;;;;;5.60;1.70;;;12.90;49.10;;;;;;5069694;28;20049;-51
2022/03/19 12:27:56;;;;;;;6.55;1.50;;;12.90;48.10;;;;;;5070496;28;20485;-51
2022/03/19 12:30:23;;;;;;;5.80;1.85;;;12.90;48.90;;;;;;5065384;28;20401;-51
2022/03/19 12:32:58;;;;;;;5.95;1.40;;;12.90;49.90;;;;;;5068719;28;20470;-55
2022/03/19 12:35:36;;;;;;;4.90;1.90;;;13.00;48.80;;;;;;5067337;28;20032;-53
2022/03/19 12:38:02;;;;;;;7.40;1.70;;;13.00;49.30;;;;;;5070255;28;20169;-52
2022/03/19 12:41:23;;;;;;;6.55;1.85;;;13.00;48.40;;;;;;5071424;28;20066;-51
2022/03/19 12:43:16;;;;;;;5.97;2.03;;;13.00;48.90;;;;;;5065022;28;20044;-51
2022/03/19 12:45:47;;;;;;;8.35;2.30;;;13.10;48.90;;;;;;5066753;28;20079;-51
2022/03/19 12:48:21;;;;;;;6.20;2.22;;;13.00;49.90;;;;;;5070960;28;20033;-51
2022/03/19 12:50:54;;;;;;;7.05;1.92;;;13.00;49.50;;;;;;5070381;28;20044;-51
2022/03/19 12:53:35;;;;;;;6.75;2.08;;;13.00;47.90;;;;;;5066783;28;20090;-51
2022/03/19 12:56:15;;;;;;;5.35;1.80;;;13.00;48.00;;;;;;5072007;28;20059;-51
2022/03/19 12:58:43;;;;;;;6.95;2.10;;;12.90;48.70;;;;;;5067277;28;20071;-51
2022/03/19 13:01:21;;;;;;;4.95;2.05;;;12.90;50.00;;;;;;5069904;28;20492;-50
2022/03/19 13:03:51;;;;;;;6.32;2.13;;;13.00;48.90;;;;;;5069160;28;20045;-51
2022/03/19 13:06:29;;;;;;;3.63;1.60;;;13.00;48.90;;;;;;5070840;28;20036;-51